Time;durP1;ratioP1;P1;durP2;ratioP2;P2;SDS_P1;SDS_P2;PMS_P1;PMS_P2;Temp;Humidity;BMP_temperature;BMP_pressure;BME280_temperature;BME280_humidity;BME280_pressure;Samples;Min_cycle;Max_cycle;Signal;HPM_P1;HPM_P2
2023/09/05 00:03:31;;;;;;;;;;;17.10;99.90;;;;;;15702415;22;19922;-35
2023/09/05 00:09:33;;;;;;;;;;;17.10;99.90;;;;;;15701444;22;19926;-36
2023/09/05 00:15:35;;;;;;;;;;;17.10;99.90;;;;;;15688693;22;20370;-36
2023/09/05 00:21:36;;;;;;;;;;;16.90;99.90;;;;;;15702117;22;19946;-38
2023/09/05 00:27:40;;;;;;;;;;;16.90;99.90;;;;;;15695447;22;19965;-36
2023/09/05 00:33:42;;;;;;;;;;;16.90;99.90;;;;;;15691780;22;20336;-36
2023/09/05 00:39:45;;;;;;;;;;;16.90;99.90;;;;;;15670701;22;20007;-36
2023/09/05 00:45:55;;;;;;;;;;;16.80;99.90;;;;;;15701525;22;19923;-37
2023/09/05 00:51:59;;;;;;;;;;;16.80;99.90;;;;;;15703308;22;19922;-36
2023/09/05 00:58:02;;;;;;;;;;;16.90;99.90;;;;;;15697276;22;20368;-36
2023/09/05 01:04:04;;;;;;;;;;;16.70;99.90;;;;;;15692382;22;19929;-36
2023/09/05 01:10:14;;;;;;;;;;;16.60;99.90;;;;;;15702721;22;19950;-36
2023/09/05 01:16:16;;;;;;;;;;;16.30;99.90;;;;;;15701831;22;19922;-36
2023/09/05 01:22:31;;;;;;;;;;;16.10;99.90;;;;;;15676050;22;19923;-36
2023/09/05 01:28:35;;;;;;;;;;;15.90;99.90;;;;;;15702693;22;19922;-36
2023/09/05 01:34:37;;;;;;;;;;;16.00;99.90;;;;;;15705512;22;20405;-37
2023/09/05 01:40:39;;;;;;;;;;;16.30;99.90;;;;;;15703876;22;19923;-36
2023/09/05 01:46:40;;;;;;;;;;;16.60;99.90;;;;;;15705409;22;20221;-36
2023/09/05 01:52:42;;;;;;;;;;;16.60;99.90;;;;;;15701696;22;20021;-36
2023/09/05 01:58:44;;;;;;;;;;;16.40;99.90;;;;;;15702218;22;20317;-37
2023/09/05 02:04:46;;;;;;;;;;;16.50;99.90;;;;;;15702343;22;20028;-36
2023/09/05 02:10:48;;;;;;;;;;;16.60;99.90;;;;;;15702355;22;19918;-36
2023/09/05 02:16:49;;;;;;;;;;;16.70;99.90;;;;;;15695491;22;19953;-36
2023/09/05 02:22:52;;;;;;;;;;;16.60;99.90;;;;;;15671185;22;19954;-36
2023/09/05 02:28:53;;;;;;;;;;;16.60;99.90;;;;;;15704451;22;19930;-36
2023/09/05 02:34:56;;;;;;;;;;;16.50;99.90;;;;;;15697666;22;19923;-35
2023/09/05 02:40:58;;;;;;;;;;;16.40;99.90;;;;;;15698653;22;20656;-36
2023/09/05 02:46:59;;;;;;;;;;;16.50;99.90;;;;;;15701195;22;20060;-36
2023/09/05 02:53:01;;;;;;;;;;;16.40;99.90;;;;;;15700441;22;19953;-36
2023/09/05 02:59:03;;;;;;;;;;;16.40;99.90;;;;;;15703933;22;19965;-36
2023/09/05 03:05:05;;;;;;;;;;;16.30;99.90;;;;;;15698878;22;19938;-36
2023/09/05 03:11:07;;;;;;;;;;;16.30;99.90;;;;;;15694784;22;19922;-36
2023/09/05 03:17:09;;;;;;;;;;;16.30;99.90;;;;;;15695531;22;20051;-36
2023/09/05 03:23:11;;;;;;;;;;;16.30;99.90;;;;;;15701219;22;20060;-36
2023/09/05 03:29:13;;;;;;;;;;;16.30;99.90;;;;;;15670283;22;19922;-36
2023/09/05 03:35:15;;;;;;;;;;;16.20;99.90;;;;;;15699148;22;19927;-36
2023/09/05 03:41:17;;;;;;;;;;;16.10;99.90;;;;;;15689972;22;20388;-36
2023/09/05 03:47:18;;;;;;;;;;;15.90;99.90;;;;;;15698040;22;19922;-36
2023/09/05 03:53:20;;;;;;;;;;;16.00;99.90;;;;;;15671706;22;19926;-37
2023/09/05 03:59:22;;;;;;;;;;;16.00;99.90;;;;;;15698582;22;19919;-35
2023/09/05 04:05:24;;;;;;;;;;;15.90;99.90;;;;;;15700181;22;19922;-35
2023/09/05 04:11:26;;;;;;;;;;;15.90;99.90;;;;;;15670725;22;19918;-35
2023/09/05 04:17:27;;;;;;;;;;;16.00;99.90;;;;;;15695518;22;19956;-36
2023/09/05 04:23:29;;;;;;;;;;;16.00;99.90;;;;;;15673132;22;19965;-36
2023/09/05 04:29:31;;;;;;;;;;;16.10;99.90;;;;;;15691607;22;20005;-36
2023/09/05 04:35:36;;;;;;;;;;;16.10;99.90;;;;;;15694125;22;20351;-36
2023/09/05 04:41:38;;;;;;;;;;;16.00;99.90;;;;;;15698088;22;20241;-36
2023/09/05 04:47:40;;;;;;;;;;;16.00;99.90;;;;;;15700141;22;19929;-36
2023/09/05 04:53:41;;;;;;;;;;;16.00;99.90;;;;;;15703879;22;20016;-36
2023/09/05 04:59:44;;;;;;;;;;;16.10;99.90;;;;;;15695609;22;20027;-36
2023/09/05 05:05:49;;;;;;;;;;;15.90;99.90;;;;;;15706376;22;20274;-36
2023/09/05 05:11:51;;;;;;;;;;;16.10;99.90;;;;;;15703088;22;19926;-36
2023/09/05 05:17:53;;;;;;;;;;;16.10;99.90;;;;;;15706992;22;20344;-36
2023/09/05 05:23:55;;;;;;;;;;;16.30;99.90;;;;;;15701752;22;20087;-36
2023/09/05 05:29:57;;;;;;;;;;;16.60;99.90;;;;;;15700031;22;19919;-36
2023/09/05 05:35:58;;;;;;;;;;;16.70;99.90;;;;;;15703695;22;20282;-37
2023/09/05 05:42:00;;;;;;;;;;;16.80;99.90;;;;;;15701101;22;19922;-36
2023/09/05 05:48:02;;;;;;;;;;;16.60;99.90;;;;;;15675669;22;20005;-37
2023/09/05 05:54:04;;;;;;;;;;;16.80;99.90;;;;;;15702262;22;19926;-36
2023/09/05 06:00:06;;;;;;;;;;;17.40;99.90;;;;;;15700690;22;20393;-36
2023/09/05 06:06:07;;;;;;;;;;;16.90;99.90;;;;;;15671736;22;20020;-36
2023/09/05 06:12:09;;;;;;;;;;;16.80;99.90;;;;;;15690986;22;19923;-36
2023/09/05 06:18:11;;;;;;;;;;;17.10;99.90;;;;;;15700011;22;20383;-36
2023/09/05 06:24:13;;;;;;;;;;;17.30;99.90;;;;;;15705079;22;19922;-36
2023/09/05 06:30:16;;;;;;;;;;;17.40;99.90;;;;;;15696782;22;20229;-36
2023/09/05 06:36:18;;;;;;;;;;;17.70;99.90;;;;;;15702374;22;19930;-36
2023/09/05 06:42:19;;;;;;;;;;;17.90;99.90;;;;;;15702166;22;19990;-36
2023/09/05 06:48:21;;;;;;;;;;;18.30;99.90;;;;;;15704374;22;20276;-37
2023/09/05 06:54:23;;;;;;;;;;;18.60;99.90;;;;;;15699815;22;19945;-36
2023/09/05 07:00:27;;;;;;;;;;;18.90;99.90;;;;;;15693485;22;19922;-36
2023/09/05 07:06:29;;;;;;;;;;;19.20;99.90;;;;;;15701203;22;20337;-36
2023/09/05 07:12:31;;;;;;;;;;;19.50;99.90;;;;;;15697589;22;19923;-38
2023/09/05 07:18:33;;;;;;;;;;;19.60;99.90;;;;;;15703746;22;19929;-36
2023/09/05 07:24:35;;;;;;;;;;;19.70;99.90;;;;;;15673970;22;19953;-37
2023/09/05 07:30:37;;;;;;;;;;;19.70;99.90;;;;;;15694467;22;19930;-37
2023/09/05 07:36:40;;;;;;;;;;;19.70;99.90;;;;;;15668155;22;19944;-36
2023/09/05 07:42:42;;;;;;;;;;;19.80;99.90;;;;;;15697334;22;19922;-37
2023/09/05 07:48:43;;;;;;;;;;;19.90;99.90;;;;;;15674310;22;19922;-37
2023/09/05 07:54:45;;;;;;;;;;;20.00;99.90;;;;;;15701245;22;20356;-36
2023/09/05 08:00:48;;;;;;;;;;;20.10;99.90;;;;;;15698102;22;19923;-37
2023/09/05 08:06:50;;;;;;;;;;;20.20;99.90;;;;;;15700621;22;20328;-37
2023/09/05 08:12:51;;;;;;;;;;;20.80;99.90;;;;;;15699122;22;19925;-37
2023/09/05 08:18:53;;;;;;;;;;;21.00;99.90;;;;;;15701410;22;19930;-36
2023/09/05 08:24:55;;;;;;;;;;;21.30;99.90;;;;;;15697483;22;19918;-36
2023/09/05 08:31:00;;;;;;;;;;;21.30;99.90;;;;;;15702474;22;19922;-37
2023/09/05 08:37:05;;;;;;;;;;;21.30;99.90;;;;;;15725021;22;19965;-36
2023/09/05 08:43:07;;;;;;;;;;;21.50;99.90;;;;;;15695356;22;19923;-37
2023/09/05 08:49:09;;;;;;;;;;;21.60;99.90;;;;;;15698824;22;20392;-36
2023/09/05 08:55:12;;;;;;;;;;;21.70;99.90;;;;;;15668049;22;20424;-36
2023/09/05 09:01:13;;;;;;;;;;;22.20;99.90;;;;;;15693312;22;19946;-36
2023/09/05 09:07:15;;;;;;;;;;;22.70;99.90;;;;;;15697839;22;19926;-38
2023/09/05 09:13:21;;;;;;;;;;;23.10;99.90;;;;;;15689587;22;20001;-36
2023/09/05 09:19:23;;;;;;;;;;;23.30;99.90;;;;;;15694444;22;19934;-36
2023/09/05 09:25:26;;;;;;;;;;;23.80;99.90;;;;;;15690670;22;20292;-38
2023/09/05 09:31:29;;;;;;;;;;;24.30;99.90;;;;;;15697197;22;19925;-36
2023/09/05 09:37:31;;;;;;;;;;;24.50;99.90;;;;;;15702584;22;19923;-36
2023/09/05 09:43:34;;;;;;;;;;;24.60;99.90;;;;;;15694467;22;19923;-36
2023/09/05 09:49:40;;;;;;;;;;;24.80;99.90;;;;;;15693196;22;19989;-36
2023/09/05 09:55:42;;;;;;;;;;;24.90;99.90;;;;;;15698784;22;19922;-36
2023/09/05 10:01:44;;;;;;;;;;;25.20;99.90;;;;;;15700667;22;20171;-36
2023/09/05 10:07:47;;;;;;;;;;;25.40;99.90;;;;;;15695343;22;20256;-37
2023/09/05 10:13:49;;;;;;;;;;;25.20;99.90;;;;;;15694547;22;19923;-36
2023/09/05 10:19:51;;;;;;;;;;;25.60;99.90;;;;;;15699783;22;20117;-37
2023/09/05 10:25:54;;;;;;;;;;;25.90;99.90;;;;;;15695879;22;19937;-37
2023/09/05 10:31:56;;;;;;;;;;;26.00;99.90;;;;;;15701734;22;19927;-37
2023/09/05 10:37:59;;;;;;;;;;;26.10;99.90;;;;;;15694830;22;20150;-37
2023/09/05 10:44:01;;;;;;;;;;;26.30;99.90;;;;;;15699072;22;19918;-36
2023/09/05 10:50:04;;;;;;;;;;;26.70;99.90;;;;;;15700492;22;19961;-37
2023/09/05 10:56:26;;;;;;;;;;;26.80;99.90;;;;;;15698497;22;20732;-37
2023/09/05 11:02:30;;;;;;;;;;;27.20;99.90;;;;;;15684805;22;19919;-37
2023/09/05 11:08:32;;;;;;;;;;;27.20;99.90;;;;;;15697333;22;19922;-37
2023/09/05 11:14:34;;;;;;;;;;;27.30;99.90;;;;;;15702919;22;20053;-37
2023/09/05 11:20:43;;;;;;;;;;;27.30;99.90;;;;;;15698127;22;19977;-37
2023/09/05 11:26:45;;;;;;;;;;;27.40;99.90;;;;;;15699999;22;19922;-36
2023/09/05 11:32:49;;;;;;;;;;;27.50;99.90;;;;;;15691767;22;20298;-37
2023/09/05 11:38:52;;;;;;;;;;;27.80;99.90;;;;;;15706656;22;19929;-36
2023/09/05 11:44:54;;;;;;;;;;;27.60;99.90;;;;;;15694920;22;19923;-38
2023/09/05 11:50:56;;;;;;;;;;;27.50;99.90;;;;;;15700424;22;19922;-37
2023/09/05 11:56:58;;;;;;;;;;;27.60;99.90;;;;;;15664949;22;20376;-37
2023/09/05 12:03:00;;;;;;;;;;;27.80;99.90;;;;;;15699567;22;20224;-37
2023/09/05 12:09:03;;;;;;;;;;;27.90;99.90;;;;;;15700407;22;20363;-37
2023/09/05 12:15:05;;;;;;;;;;;28.10;99.90;;;;;;15674664;22;20173;-37
2023/09/05 12:21:06;;;;;;;;;;;28.20;99.90;;;;;;15683145;22;20348;-38
2023/09/05 12:27:23;;;;;;;;;;;28.40;99.90;;;;;;15702277;22;20355;-37
2023/09/05 12:33:24;;;;;;;;;;;28.60;99.90;;;;;;15690395;22;19923;-37
2023/09/05 12:39:26;;;;;;;;;;;28.60;99.90;;;;;;15678957;22;19933;-35
2023/09/05 12:45:29;;;;;;;;;;;28.60;99.90;;;;;;15701790;22;19962;-36
2023/09/05 12:51:31;;;;;;;;;;;28.70;99.90;;;;;;15690324;22;19922;-36
2023/09/05 12:57:32;;;;;;;;;;;28.40;99.90;;;;;;15682665;22;20511;-36
2023/09/05 13:03:35;;;;;;;;;;;28.60;99.90;;;;;;15687112;22;19929;-37
2023/09/05 13:09:37;;;;;;;;;;;28.80;99.90;;;;;;15690759;22;20009;-37
2023/09/05 13:15:43;;;;;;;;;;;29.00;99.90;;;;;;15694902;22;20009;-36
2023/09/05 13:21:45;;;;;;;;;;;28.80;99.90;;;;;;15697879;22;19983;-36
2023/09/05 13:27:47;;;;;;;;;;;28.60;99.90;;;;;;15697993;22;20346;-36
2023/09/05 13:33:49;;;;;;;;;;;28.70;99.90;;;;;;15699241;22;20337;-36
2023/09/05 13:39:52;;;;;;;;;;;28.80;99.90;;;;;;15697177;22;19994;-36
2023/09/05 13:45:54;;;;;;;;;;;28.80;99.90;;;;;;15667494;22;19926;-37
2023/09/05 13:51:56;;;;;;;;;;;28.70;99.90;;;;;;15699181;22;19926;-38
2023/09/05 13:57:58;;;;;;;;;;;28.40;99.90;;;;;;15679225;22;20482;-36
2023/09/05 14:03:59;;;;;;;;;;;28.40;99.90;;;;;;15685287;22;20363;-36
2023/09/05 14:10:02;;;;;;;;;;;28.30;99.90;;;;;;15686318;22;19923;-37
2023/09/05 14:16:04;;;;;;;;;;;28.40;99.90;;;;;;15678374;22;20413;-37
2023/09/05 14:22:06;;;;;;;;;;;28.10;99.90;;;;;;15688053;22;19981;-37
2023/09/05 14:28:08;;;;;;;;;;;28.00;99.90;;;;;;15682447;22;20260;-38
2023/09/05 14:34:09;;;;;;;;;;;28.10;99.90;;;;;;15681997;22;19923;-37
2023/09/05 14:40:12;;;;;;;;;;;28.40;99.90;;;;;;15685641;22;19923;-36
2023/09/05 14:46:13;;;;;;;;;;;28.40;99.90;;;;;;15649667;22;19929;-36
2023/09/05 14:52:18;;;;;;;;;;;28.60;99.90;;;;;;15687709;22;19930;-36
2023/09/05 14:58:19;;;;;;;;;;;28.70;99.90;;;;;;15683306;22;20442;-36
2023/09/05 15:04:21;;;;;;;;;;;28.50;99.90;;;;;;15668514;22;20004;-36
2023/09/05 15:10:24;;;;;;;;;;;28.10;99.90;;;;;;15698728;22;19922;-37
2023/09/05 15:16:27;;;;;;;;;;;28.20;99.90;;;;;;15669428;22;19937;-36
2023/09/05 15:22:29;;;;;;;;;;;28.30;99.90;;;;;;15699037;22;19965;-38
2023/09/05 15:28:31;;;;;;;;;;;28.40;99.90;;;;;;15696794;22;19930;-36
2023/09/05 15:34:34;;;;;;;;;;;28.30;99.90;;;;;;15692378;22;19984;-37
2023/09/05 15:40:36;;;;;;;;;;;28.10;99.90;;;;;;15702156;22;19944;-36
2023/09/05 15:46:39;;;;;;;;;;;28.20;99.90;;;;;;15693018;22;20253;-36
2023/09/05 15:52:41;;;;;;;;;;;28.30;99.90;;;;;;15685273;22;20332;-37
2023/09/05 15:58:43;;;;;;;;;;;28.20;99.90;;;;;;15665196;22;20225;-36
2023/09/05 16:04:45;;;;;;;;;;;28.20;99.90;;;;;;15683268;22;19922;-36
2023/09/05 16:10:49;;;;;;;;;;;28.30;99.90;;;;;;15672140;22;19930;-36
2023/09/05 16:16:53;;;;;;;;;;;28.30;99.90;;;;;;15689191;22;19934;-36
2023/09/05 16:22:55;;;;;;;;;;;28.20;99.90;;;;;;15670600;22;20033;-36
2023/09/05 16:28:56;;;;;;;;;;;28.00;99.90;;;;;;15682740;22;19923;-36
2023/09/05 16:34:58;;;;;;;;;;;28.10;99.90;;;;;;15663867;22;19990;-36
2023/09/05 16:41:05;;;;;;;;;;;28.20;99.90;;;;;;15652201;22;19926;-36
2023/09/05 16:47:07;;;;;;;;;;;28.20;99.90;;;;;;15654519;22;19926;-37
2023/09/05 16:53:09;;;;;;;;;;;28.40;99.90;;;;;;15659570;22;20016;-36
2023/09/05 16:59:12;;;;;;;;;;;28.40;99.90;;;;;;15680203;22;19922;-36
2023/09/05 17:05:14;;;;;;;;;;;28.10;99.90;;;;;;15693071;22;19923;-36
2023/09/05 17:11:15;;;;;;;;;;;28.20;99.90;;;;;;15686392;22;19958;-36
2023/09/05 17:17:17;;;;;;;;;;;28.10;99.90;;;;;;15692373;22;20040;-37
2023/09/05 17:23:19;;;;;;;;;;;28.20;99.90;;;;;;15653310;22;20224;-36
2023/09/05 17:29:21;;;;;;;;;;;28.20;99.90;;;;;;15664777;22;19972;-35
2023/09/05 17:35:23;;;;;;;;;;;27.80;99.90;;;;;;15691998;22;19922;-36
2023/09/05 17:41:24;;;;;;;;;;;27.30;99.90;;;;;;15696550;22;20785;-35
2023/09/05 17:47:26;;;;;;;;;;;26.60;99.90;;;;;;15693810;22;20060;-35
2023/09/05 17:53:28;;;;;;;;;;;26.40;99.90;;;;;;15695167;22;19922;-35
2023/09/05 17:59:31;;;;;;;;;;;26.00;99.90;;;;;;15649685;22;20251;-35
2023/09/05 18:05:32;;;;;;;;;;;25.50;99.90;;;;;;15649981;22;19941;-35
2023/09/05 18:11:34;;;;;;;;;;;25.20;99.90;;;;;;15680174;22;20446;-38
2023/09/05 18:17:36;;;;;;;;;;;24.70;99.90;;;;;;15680876;22;19942;-36
2023/09/05 18:23:38;;;;;;;;;;;24.40;99.90;;;;;;15653768;22;20001;-35
2023/09/05 18:29:40;;;;;;;;;;;24.20;99.90;;;;;;15684637;22;19989;-36
2023/09/05 18:35:42;;;;;;;;;;;23.80;99.90;;;;;;15681902;22;19923;-36
2023/09/05 18:41:43;;;;;;;;;;;23.40;99.90;;;;;;15682350;22;20415;-35
2023/09/05 18:47:45;;;;;;;;;;;23.30;99.90;;;;;;15658242;22;20397;-35
2023/09/05 18:53:47;;;;;;;;;;;23.00;99.90;;;;;;15690428;22;19997;-35
2023/09/05 18:59:49;;;;;;;;;;;22.70;99.90;;;;;;15693135;22;20009;-35
2023/09/05 19:05:52;;;;;;;;;;;22.60;99.90;;;;;;15703393;22;20074;-36
2023/09/05 19:11:53;;;;;;;;;;;22.60;99.90;;;;;;15696299;22;19989;-35
2023/09/05 19:17:55;;;;;;;;;;;22.50;99.90;;;;;;15702294;22;19960;-36
2023/09/05 19:23:57;;;;;;;;;;;22.40;99.90;;;;;;15703733;22;20363;-36
2023/09/05 19:29:59;;;;;;;;;;;22.30;99.90;;;;;;15674424;22;20372;-36
2023/09/05 19:36:01;;;;;;;;;;;22.20;99.90;;;;;;15698045;22;20373;-36
2023/09/05 19:42:03;;;;;;;;;;;22.30;99.90;;;;;;15698912;22;19929;-35
2023/09/05 19:48:07;;;;;;;;;;;22.40;99.90;;;;;;15695315;22;19919;-35
2023/09/05 19:54:09;;;;;;;;;;;22.60;99.90;;;;;;15700671;22;20076;-36
2023/09/05 20:00:14;;;;;;;;;;;22.80;99.90;;;;;;15677761;22;20033;-37
2023/09/05 20:06:16;;;;;;;;;;;23.10;99.90;;;;;;15682145;22;19961;-36
2023/09/05 20:12:17;;;;;;;;;;;23.10;99.90;;;;;;15682013;22;19952;-37
2023/09/05 20:18:20;;;;;;;;;;;23.20;99.90;;;;;;15688183;22;19927;-36
2023/09/05 20:24:21;;;;;;;;;;;23.10;99.90;;;;;;15683319;22;19922;-36
2023/09/05 20:30:23;;;;;;;;;;;23.00;99.90;;;;;;15686412;22;20209;-37
2023/09/05 20:36:25;;;;;;;;;;;22.90;99.90;;;;;;15684838;22;19922;-36
2023/09/05 20:42:27;;;;;;;;;;;22.90;99.90;;;;;;15681765;22;19929;-36
2023/09/05 20:48:29;;;;;;;;;;;22.80;99.90;;;;;;15677933;22;19964;-36
2023/09/05 20:54:31;;;;;;;;;;;22.90;99.90;;;;;;15688963;22;19952;-36
2023/09/05 21:00:33;;;;;;;;;;;22.90;99.90;;;;;;15693190;22;19964;-36
2023/09/05 21:06:35;;;;;;;;;;;23.10;99.90;;;;;;15699738;22;19923;-36
2023/09/05 21:12:36;;;;;;;;;;;23.10;99.90;;;;;;15701460;22;20323;-36
2023/09/05 21:18:39;;;;;;;;;;;22.50;99.90;;;;;;15701948;22;20040;-36
2023/09/05 21:24:41;;;;;;;;;;;22.40;99.90;;;;;;15697509;22;19999;-36
2023/09/05 21:30:42;;;;;;;;;;;22.10;99.90;;;;;;15701087;22;19995;-35
2023/09/05 21:36:44;;;;;;;;;;;22.00;99.90;;;;;;15704647;22;20749;-36
2023/09/05 21:42:46;;;;;;;;;;;21.90;99.90;;;;;;15705974;22;20003;-36
2023/09/05 21:48:48;;;;;;;;;;;21.60;99.90;;;;;;15702657;22;19926;-36
2023/09/05 21:54:50;;;;;;;;;;;21.60;99.90;;;;;;15701103;22;19923;-36
2023/09/05 22:00:53;;;;;;;;;;;21.60;99.90;;;;;;15664911;22;20259;-35
2023/09/05 22:06:54;;;;;;;;;;;21.80;99.90;;;;;;15687211;22;19922;-36
2023/09/05 22:12:56;;;;;;;;;;;21.60;99.90;;;;;;15659296;22;19919;-36
2023/09/05 22:19:17;;;;;;;;;;;21.30;99.90;;;;;;15681625;22;19961;-36
2023/09/05 22:25:19;;;;;;;;;;;21.60;99.90;;;;;;15689550;22;20137;-35
2023/09/05 22:31:21;;;;;;;;;;;21.60;99.90;;;;;;15677560;22;19922;-35
2023/09/05 22:37:23;;;;;;;;;;;21.50;99.90;;;;;;15692310;22;19923;-35
2023/09/05 22:43:24;;;;;;;;;;;21.30;99.90;;;;;;15683595;22;20312;-35
2023/09/05 22:49:26;;;;;;;;;;;21.20;99.90;;;;;;15687683;22;19957;-36
2023/09/05 22:55:38;;;;;;;;;;;20.70;99.90;;;;;;15660153;22;19945;-35
2023/09/05 23:01:39;;;;;;;;;;;20.60;99.90;;;;;;15695362;22;19926;-36
2023/09/05 23:07:42;;;;;;;;;;;20.70;99.90;;;;;;15704122;22;20001;-36
2023/09/05 23:13:44;;;;;;;;;;;20.90;99.90;;;;;;15700292;22;19929;-37
2023/09/05 23:19:46;;;;;;;;;;;21.00;99.90;;;;;;15702074;22;19922;-36
2023/09/05 23:25:47;;;;;;;;;;;21.10;99.90;;;;;;15703336;22;20166;-36
2023/09/05 23:31:49;;;;;;;;;;;21.20;99.90;;;;;;15696928;22;19984;-36
2023/09/05 23:37:52;;;;;;;;;;;21.10;99.90;;;;;;15702147;22;20286;-36
2023/09/05 23:43:54;;;;;;;;;;;20.50;99.90;;;;;;15668227;22;19923;-35
2023/09/05 23:49:56;;;;;;;;;;;20.20;99.90;;;;;;15702252;22;20229;-35
2023/09/05 23:55:57;;;;;;;;;;;20.20;99.90;;;;;;15690766;22;20373;-35
